首页
METAR-TAF:

METAR-TAF

机场 :

香農機場

Shannon, 爱尔兰

纬度: 52-42N, 经度: 008-55W, 海拔: 14米

当前天气观测

该预报发布于20分钟前的11:30 UTC
风速10节,风向西
温度 17°C
湿度 77%
气压 1022 hPa
能见度10公里或以上
少量云层高于1200英尺
散云层高于1800英尺
多云层高于2400英尺

METAR: EINN 131130Z 28010KT 9999 FEW012 SCT018 BKN024 17/13 Q1022 NOSIG

时间: 12:50 (11:50 UTC)

预报

该预报发布于50分钟前的11:00 UTC
预报有效从13日的 12点(UTC)到 14日的 12点(UTC)
风速10节,风向西转西北
能见度10公里或以上
多云层高于2500英尺
几率 40% :
短暂存在
从 13日的 12点(UTC)到 13日的 17点(UTC)
多云层高于1200英尺
成为
从 13日的 16点(UTC)到 13日的 18点(UTC)
风速10节,风向西北
成为
从 14日的 10点(UTC)到 14日的 12点(UTC)
多云层高于1200英尺

TAF: EINN 131100Z 1312/1412 29010KT 9999 BKN025 PROB40 TEMPO 1312/1317 BKN012 BECMG 1316/1318 32010KT BECMG 1410/1412 BKN012

超过4000个机场的气象观测和天气预报(METAR&TAF报告)。

可查询的气象台以黄色和红色小点在地图上表示。

将鼠标移到小点上方,可查看气象台名称。

然后点击查看天气观测和预报。

如需切换地图:点击带黑十字的绿色按钮放大地图;点击带横线的绿色按钮缩小地图;或者点击绿色箭头查看邻近地区的地图。


METAR-TAF: